sensor_id;sensor_type;location;lat;lon;timestamp;P1;durP1;ratioP1;P2;durP2;ratioP2
11777;SDS011;5946;51.770;8.548;2023-02-15T00:01:38;17.87;;;12.30;;
11777;SDS011;5946;51.770;8.548;2023-02-15T00:04:05;19.10;;;12.77;;
11777;SDS011;5946;51.770;8.548;2023-02-15T00:06:31;19.13;;;12.57;;
11777;SDS011;5946;51.770;8.548;2023-02-15T00:08:57;18.57;;;12.53;;
11777;SDS011;5946;51.770;8.548;2023-02-15T00:11:23;18.37;;;13.03;;
11777;SDS011;5946;51.770;8.548;2023-02-15T00:16:31;18.60;;;12.70;;
11777;SDS011;5946;51.770;8.548;2023-02-15T00:18:57;20.37;;;13.53;;
11777;SDS011;5946;51.770;8.548;2023-02-15T00:21:26;19.73;;;12.40;;
11777;SDS011;5946;51.770;8.548;2023-02-15T00:23:52;17.80;;;12.27;;
11777;SDS011;5946;51.770;8.548;2023-02-15T00:26:18;20.00;;;12.87;;
11777;SDS011;5946;51.770;8.548;2023-02-15T00:28:44;22.20;;;13.60;;
11777;SDS011;5946;51.770;8.548;2023-02-15T00:31:11;20.13;;;12.63;;
11777;SDS011;5946;51.770;8.548;2023-02-15T00:33:37;19.13;;;12.27;;
11777;SDS011;5946;51.770;8.548;2023-02-15T00:36:04;20.43;;;13.10;;
11777;SDS011;5946;51.770;8.548;2023-02-15T00:38:30;17.30;;;11.77;;
11777;SDS011;5946;51.770;8.548;2023-02-15T00:40:57;21.87;;;13.33;;
11777;SDS011;5946;51.770;8.548;2023-02-15T00:43:24;20.43;;;13.63;;
11777;SDS011;5946;51.770;8.548;2023-02-15T00:45:50;19.77;;;13.37;;
11777;SDS011;5946;51.770;8.548;2023-02-15T00:48:16;19.97;;;13.53;;
11777;SDS011;5946;51.770;8.548;2023-02-15T00:50:46;19.80;;;13.60;;
11777;SDS011;5946;51.770;8.548;2023-02-15T00:53:12;20.10;;;13.00;;
11777;SDS011;5946;51.770;8.548;2023-02-15T00:55:38;21.10;;;13.30;;
11777;SDS011;5946;51.770;8.548;2023-02-15T00:58:05;20.40;;;13.07;;
11777;SDS011;5946;51.770;8.548;2023-02-15T01:00:31;19.87;;;13.37;;
11777;SDS011;5946;51.770;8.548;2023-02-15T01:02:57;20.67;;;13.37;;
11777;SDS011;5946;51.770;8.548;2023-02-15T01:05:23;20.60;;;12.97;;
11777;SDS011;5946;51.770;8.548;2023-02-15T01:07:49;19.87;;;13.47;;
11777;SDS011;5946;51.770;8.548;2023-02-15T01:10:15;23.43;;;13.87;;
11777;SDS011;5946;51.770;8.548;2023-02-15T01:12:41;23.53;;;14.40;;
11777;SDS011;5946;51.770;8.548;2023-02-15T01:15:07;21.80;;;13.37;;
11777;SDS011;5946;51.770;8.548;2023-02-15T01:17:34;20.30;;;13.60;;
11777;SDS011;5946;51.770;8.548;2023-02-15T01:20:00;20.37;;;13.73;;
11777;SDS011;5946;51.770;8.548;2023-02-15T01:22:26;21.50;;;14.20;;
11777;SDS011;5946;51.770;8.548;2023-02-15T01:24:52;21.97;;;14.27;;
11777;SDS011;5946;51.770;8.548;2023-02-15T01:27:18;20.07;;;13.90;;
11777;SDS011;5946;51.770;8.548;2023-02-15T01:29:43;21.13;;;13.57;;
11777;SDS011;5946;51.770;8.548;2023-02-15T01:32:09;22.27;;;14.67;;
11777;SDS011;5946;51.770;8.548;2023-02-15T01:34:36;21.00;;;13.50;;
11777;SDS011;5946;51.770;8.548;2023-02-15T01:37:01;21.40;;;13.87;;
11777;SDS011;5946;51.770;8.548;2023-02-15T01:39:27;20.47;;;13.87;;
11777;SDS011;5946;51.770;8.548;2023-02-15T01:41:53;22.03;;;13.73;;
11777;SDS011;5946;51.770;8.548;2023-02-15T01:44:40;22.70;;;14.33;;
11777;SDS011;5946;51.770;8.548;2023-02-15T01:47:07;19.30;;;12.70;;
11777;SDS011;5946;51.770;8.548;2023-02-15T01:49:34;21.53;;;13.20;;
11777;SDS011;5946;51.770;8.548;2023-02-15T01:52:00;22.70;;;14.27;;
11777;SDS011;5946;51.770;8.548;2023-02-15T01:54:29;22.30;;;14.20;;
11777;SDS011;5946;51.770;8.548;2023-02-15T01:56:58;21.97;;;13.80;;
11777;SDS011;5946;51.770;8.548;2023-02-15T01:59:26;22.60;;;14.70;;
11777;SDS011;5946;51.770;8.548;2023-02-15T02:01:52;23.37;;;14.60;;
11777;SDS011;5946;51.770;8.548;2023-02-15T02:07:00;21.60;;;14.40;;
11777;SDS011;5946;51.770;8.548;2023-02-15T02:09:27;21.13;;;13.93;;
11777;SDS011;5946;51.770;8.548;2023-02-15T02:11:54;21.67;;;14.13;;
11777;SDS011;5946;51.770;8.548;2023-02-15T02:14:20;23.00;;;14.43;;
11777;SDS011;5946;51.770;8.548;2023-02-15T02:16:58;24.67;;;14.00;;
11777;SDS011;5946;51.770;8.548;2023-02-15T02:20:03;23.90;;;14.67;;
11777;SDS011;5946;51.770;8.548;2023-02-15T02:22:41;22.47;;;14.27;;
11777;SDS011;5946;51.770;8.548;2023-02-15T02:27:49;22.93;;;14.23;;
11777;SDS011;5946;51.770;8.548;2023-02-15T02:38:10;24.07;;;14.30;;
11777;SDS011;5946;51.770;8.548;2023-02-15T02:43:18;24.07;;;14.67;;
11777;SDS011;5946;51.770;8.548;2023-02-15T02:48:37;23.43;;;14.17;;
11777;SDS011;5946;51.770;8.548;2023-02-15T02:51:03;24.43;;;14.23;;
11777;SDS011;5946;51.770;8.548;2023-02-15T02:53:30;23.83;;;14.47;;
11777;SDS011;5946;51.770;8.548;2023-02-15T02:55:58;25.43;;;14.70;;
11777;SDS011;5946;51.770;8.548;2023-02-15T03:00:55;24.67;;;14.40;;
11777;SDS011;5946;51.770;8.548;2023-02-15T03:06:22;25.57;;;14.40;;
11777;SDS011;5946;51.770;8.548;2023-02-15T03:08:53;22.00;;;14.37;;
11777;SDS011;5946;51.770;8.548;2023-02-15T03:11:22;24.87;;;14.27;;
11777;SDS011;5946;51.770;8.548;2023-02-15T03:13:48;22.27;;;14.47;;
11777;SDS011;5946;51.770;8.548;2023-02-15T03:16:14;23.63;;;14.63;;
11777;SDS011;5946;51.770;8.548;2023-02-15T03:18:59;23.97;;;14.60;;
11777;SDS011;5946;51.770;8.548;2023-02-15T03:21:37;24.53;;;16.13;;
11777;SDS011;5946;51.770;8.548;2023-02-15T03:24:07;24.17;;;15.30;;
11777;SDS011;5946;51.770;8.548;2023-02-15T03:26:34;23.97;;;14.83;;
11777;SDS011;5946;51.770;8.548;2023-02-15T03:29:00;23.37;;;14.53;;
11777;SDS011;5946;51.770;8.548;2023-02-15T03:31:28;22.53;;;13.83;;
11777;SDS011;5946;51.770;8.548;2023-02-15T03:34:00;25.43;;;14.97;;
11777;SDS011;5946;51.770;8.548;2023-02-15T03:36:37;23.70;;;14.63;;
11777;SDS011;5946;51.770;8.548;2023-02-15T03:39:29;24.60;;;14.77;;
11777;SDS011;5946;51.770;8.548;2023-02-15T03:44:41;25.00;;;14.40;;
11777;SDS011;5946;51.770;8.548;2023-02-15T03:47:13;24.00;;;14.53;;
11777;SDS011;5946;51.770;8.548;2023-02-15T03:52:10;25.07;;;14.93;;
11777;SDS011;5946;51.770;8.548;2023-02-15T03:54:37;23.10;;;14.33;;
11777;SDS011;5946;51.770;8.548;2023-02-15T03:57:13;23.80;;;14.73;;
11777;SDS011;5946;51.770;8.548;2023-02-15T03:59:58;26.47;;;15.47;;
11777;SDS011;5946;51.770;8.548;2023-02-15T04:02:50;22.33;;;13.73;;
11777;SDS011;5946;51.770;8.548;2023-02-15T04:05:17;23.27;;;14.00;;
11777;SDS011;5946;51.770;8.548;2023-02-15T04:07:42;21.30;;;13.77;;
11777;SDS011;5946;51.770;8.548;2023-02-15T04:10:08;23.00;;;14.40;;
11777;SDS011;5946;51.770;8.548;2023-02-15T04:12:53;21.77;;;13.27;;
11777;SDS011;5946;51.770;8.548;2023-02-15T04:15:19;21.40;;;13.43;;
11777;SDS011;5946;51.770;8.548;2023-02-15T04:18:04;22.13;;;13.30;;
11777;SDS011;5946;51.770;8.548;2023-02-15T04:20:30;21.50;;;13.90;;
11777;SDS011;5946;51.770;8.548;2023-02-15T04:23:15;22.37;;;13.67;;
11777;SDS011;5946;51.770;8.548;2023-02-15T04:26:02;21.30;;;13.27;;
11777;SDS011;5946;51.770;8.548;2023-02-15T04:28:28;23.13;;;13.63;;
11777;SDS011;5946;51.770;8.548;2023-02-15T04:30:54;23.77;;;14.00;;
11777;SDS011;5946;51.770;8.548;2023-02-15T04:33:20;21.13;;;13.20;;
11777;SDS011;5946;51.770;8.548;2023-02-15T04:35:46;22.53;;;13.37;;
11777;SDS011;5946;51.770;8.548;2023-02-15T04:38:12;22.63;;;13.33;;
11777;SDS011;5946;51.770;8.548;2023-02-15T04:40:38;20.00;;;12.93;;
11777;SDS011;5946;51.770;8.548;2023-02-15T04:43:04;23.20;;;13.90;;
11777;SDS011;5946;51.770;8.548;2023-02-15T04:45:30;24.60;;;13.23;;
11777;SDS011;5946;51.770;8.548;2023-02-15T04:47:55;24.33;;;13.67;;
11777;SDS011;5946;51.770;8.548;2023-02-15T04:50:21;20.20;;;12.83;;
11777;SDS011;5946;51.770;8.548;2023-02-15T04:52:47;21.27;;;13.37;;
11777;SDS011;5946;51.770;8.548;2023-02-15T04:55:13;20.90;;;13.30;;
11777;SDS011;5946;51.770;8.548;2023-02-15T04:57:39;22.87;;;13.10;;
11777;SDS011;5946;51.770;8.548;2023-02-15T05:00:06;24.23;;;13.63;;
11777;SDS011;5946;51.770;8.548;2023-02-15T05:02:33;20.97;;;13.80;;
11777;SDS011;5946;51.770;8.548;2023-02-15T05:04:59;21.47;;;13.67;;
11777;SDS011;5946;51.770;8.548;2023-02-15T05:07:25;22.93;;;13.40;;
11777;SDS011;5946;51.770;8.548;2023-02-15T05:09:51;22.50;;;13.60;;
11777;SDS011;5946;51.770;8.548;2023-02-15T05:12:17;24.03;;;14.00;;
11777;SDS011;5946;51.770;8.548;2023-02-15T05:14:43;21.37;;;13.13;;
11777;SDS011;5946;51.770;8.548;2023-02-15T05:17:09;19.20;;;12.70;;
11777;SDS011;5946;51.770;8.548;2023-02-15T05:19:35;20.93;;;13.63;;
11777;SDS011;5946;51.770;8.548;2023-02-15T05:22:00;24.37;;;13.70;;
11777;SDS011;5946;51.770;8.548;2023-02-15T05:24:26;22.30;;;13.93;;
11777;SDS011;5946;51.770;8.548;2023-02-15T05:27:11;23.47;;;13.27;;
11777;SDS011;5946;51.770;8.548;2023-02-15T05:29:56;20.87;;;13.13;;
11777;SDS011;5946;51.770;8.548;2023-02-15T05:32:22;22.27;;;12.20;;
11777;SDS011;5946;51.770;8.548;2023-02-15T05:34:48;21.70;;;13.83;;
11777;SDS011;5946;51.770;8.548;2023-02-15T05:37:14;19.80;;;12.23;;
11777;SDS011;5946;51.770;8.548;2023-02-15T05:39:40;22.77;;;13.40;;
11777;SDS011;5946;51.770;8.548;2023-02-15T05:42:06;22.80;;;13.20;;
11777;SDS011;5946;51.770;8.548;2023-02-15T05:44:32;22.57;;;13.13;;
11777;SDS011;5946;51.770;8.548;2023-02-15T05:46:58;23.13;;;14.00;;
11777;SDS011;5946;51.770;8.548;2023-02-15T05:49:24;22.03;;;12.37;;
11777;SDS011;5946;51.770;8.548;2023-02-15T05:51:50;23.63;;;13.70;;
11777;SDS011;5946;51.770;8.548;2023-02-15T05:54:16;21.37;;;13.40;;
11777;SDS011;5946;51.770;8.548;2023-02-15T05:56:42;22.30;;;13.40;;
11777;SDS011;5946;51.770;8.548;2023-02-15T05:59:08;20.40;;;12.60;;
11777;SDS011;5946;51.770;8.548;2023-02-15T06:01:34;23.50;;;13.30;;
11777;SDS011;5946;51.770;8.548;2023-02-15T06:04:00;22.57;;;14.23;;
11777;SDS011;5946;51.770;8.548;2023-02-15T06:06:26;25.17;;;14.23;;
11777;SDS011;5946;51.770;8.548;2023-02-15T06:08:52;24.03;;;14.07;;
11777;SDS011;5946;51.770;8.548;2023-02-15T06:11:18;23.30;;;13.77;;
11777;SDS011;5946;51.770;8.548;2023-02-15T06:13:44;22.93;;;13.50;;
11777;SDS011;5946;51.770;8.548;2023-02-15T06:16:09;20.73;;;13.07;;
11777;SDS011;5946;51.770;8.548;2023-02-15T06:18:35;20.90;;;13.60;;
11777;SDS011;5946;51.770;8.548;2023-02-15T06:21:01;23.57;;;13.87;;
11777;SDS011;5946;51.770;8.548;2023-02-15T06:23:27;23.53;;;13.80;;
11777;SDS011;5946;51.770;8.548;2023-02-15T06:25:53;21.60;;;13.23;;
11777;SDS011;5946;51.770;8.548;2023-02-15T06:28:19;25.27;;;13.73;;
11777;SDS011;5946;51.770;8.548;2023-02-15T06:30:45;23.93;;;13.60;;
11777;SDS011;5946;51.770;8.548;2023-02-15T06:33:11;22.90;;;13.57;;
11777;SDS011;5946;51.770;8.548;2023-02-15T06:35:37;29.43;;;14.67;;
11777;SDS011;5946;51.770;8.548;2023-02-15T06:38:03;20.53;;;12.80;;
11777;SDS011;5946;51.770;8.548;2023-02-15T06:40:29;24.53;;;13.77;;
11777;SDS011;5946;51.770;8.548;2023-02-15T06:42:55;24.67;;;14.07;;
11777;SDS011;5946;51.770;8.548;2023-02-15T06:45:21;22.03;;;14.13;;
11777;SDS011;5946;51.770;8.548;2023-02-15T06:47:47;23.93;;;14.07;;
11777;SDS011;5946;51.770;8.548;2023-02-15T06:50:13;22.33;;;13.37;;
11777;SDS011;5946;51.770;8.548;2023-02-15T06:52:39;23.37;;;13.93;;
11777;SDS011;5946;51.770;8.548;2023-02-15T06:55:05;25.13;;;14.07;;
11777;SDS011;5946;51.770;8.548;2023-02-15T06:57:31;24.73;;;15.37;;
11777;SDS011;5946;51.770;8.548;2023-02-15T06:59:58;24.23;;;14.33;;
11777;SDS011;5946;51.770;8.548;2023-02-15T07:02:24;23.93;;;14.13;;
11777;SDS011;5946;51.770;8.548;2023-02-15T07:04:50;21.83;;;13.80;;
11777;SDS011;5946;51.770;8.548;2023-02-15T07:07:16;25.60;;;13.50;;
11777;SDS011;5946;51.770;8.548;2023-02-15T07:09:42;23.60;;;13.67;;
11777;SDS011;5946;51.770;8.548;2023-02-15T07:12:08;24.07;;;13.93;;
11777;SDS011;5946;51.770;8.548;2023-02-15T07:14:54;26.27;;;13.50;;
11777;SDS011;5946;51.770;8.548;2023-02-15T07:17:20;21.23;;;13.03;;
11777;SDS011;5946;51.770;8.548;2023-02-15T07:19:46;24.87;;;13.40;;
11777;SDS011;5946;51.770;8.548;2023-02-15T07:22:11;23.40;;;14.60;;
11777;SDS011;5946;51.770;8.548;2023-02-15T07:24:37;24.10;;;13.33;;
11777;SDS011;5946;51.770;8.548;2023-02-15T07:27:03;24.73;;;13.77;;
11777;SDS011;5946;51.770;8.548;2023-02-15T07:29:29;27.53;;;14.37;;
11777;SDS011;5946;51.770;8.548;2023-02-15T07:31:55;28.97;;;16.03;;
11777;SDS011;5946;51.770;8.548;2023-02-15T07:34:21;22.33;;;13.70;;
11777;SDS011;5946;51.770;8.548;2023-02-15T07:36:47;21.30;;;13.23;;
11777;SDS011;5946;51.770;8.548;2023-02-15T07:39:15;22.60;;;13.90;;
11777;SDS011;5946;51.770;8.548;2023-02-15T07:41:41;22.07;;;13.47;;
11777;SDS011;5946;51.770;8.548;2023-02-15T07:44:10;24.33;;;14.13;;
11777;SDS011;5946;51.770;8.548;2023-02-15T07:46:37;23.67;;;14.13;;
11777;SDS011;5946;51.770;8.548;2023-02-15T07:49:03;22.47;;;13.60;;
11777;SDS011;5946;51.770;8.548;2023-02-15T07:51:29;22.13;;;13.17;;
11777;SDS011;5946;51.770;8.548;2023-02-15T07:53:55;26.03;;;14.97;;
11777;SDS011;5946;51.770;8.548;2023-02-15T07:56:21;22.30;;;13.43;;
11777;SDS011;5946;51.770;8.548;2023-02-15T07:58:47;23.13;;;13.97;;
11777;SDS011;5946;51.770;8.548;2023-02-15T08:01:16;20.20;;;12.83;;
11777;SDS011;5946;51.770;8.548;2023-02-15T08:03:43;22.30;;;12.80;;
11777;SDS011;5946;51.770;8.548;2023-02-15T08:06:09;24.67;;;15.17;;
11777;SDS011;5946;51.770;8.548;2023-02-15T08:08:36;23.37;;;14.27;;
11777;SDS011;5946;51.770;8.548;2023-02-15T08:11:06;22.30;;;14.43;;
11777;SDS011;5946;51.770;8.548;2023-02-15T08:13:58;20.90;;;14.20;;
11777;SDS011;5946;51.770;8.548;2023-02-15T08:19:16;21.43;;;13.73;;
11777;SDS011;5946;51.770;8.548;2023-02-15T08:21:44;22.77;;;13.30;;
11777;SDS011;5946;51.770;8.548;2023-02-15T08:24:10;20.10;;;12.60;;
11777;SDS011;5946;51.770;8.548;2023-02-15T08:26:37;22.20;;;14.43;;
11777;SDS011;5946;51.770;8.548;2023-02-15T08:29:04;22.17;;;12.83;;
11777;SDS011;5946;51.770;8.548;2023-02-15T08:31:31;16.57;;;11.30;;
11777;SDS011;5946;51.770;8.548;2023-02-15T08:33:58;19.27;;;12.07;;
11777;SDS011;5946;51.770;8.548;2023-02-15T08:36:25;19.00;;;12.47;;
11777;SDS011;5946;51.770;8.548;2023-02-15T08:38:52;17.13;;;11.13;;
11777;SDS011;5946;51.770;8.548;2023-02-15T08:41:28;19.17;;;11.67;;
11777;SDS011;5946;51.770;8.548;2023-02-15T08:43:55;17.13;;;10.80;;
11777;SDS011;5946;51.770;8.548;2023-02-15T08:46:22;16.73;;;10.20;;
11777;SDS011;5946;51.770;8.548;2023-02-15T08:48:49;18.03;;;10.43;;
11777;SDS011;5946;51.770;8.548;2023-02-15T08:51:16;17.00;;;11.20;;
11777;SDS011;5946;51.770;8.548;2023-02-15T08:53:43;19.93;;;11.97;;
11777;SDS011;5946;51.770;8.548;2023-02-15T08:56:10;17.23;;;10.70;;
11777;SDS011;5946;51.770;8.548;2023-02-15T08:58:36;15.37;;;10.47;;
11777;SDS011;5946;51.770;8.548;2023-02-15T09:01:13;16.30;;;10.80;;
11777;SDS011;5946;51.770;8.548;2023-02-15T09:03:42;18.33;;;11.00;;
11777;SDS011;5946;51.770;8.548;2023-02-15T09:06:09;21.17;;;11.57;;
11777;SDS011;5946;51.770;8.548;2023-02-15T09:08:35;20.03;;;12.13;;
11777;SDS011;5946;51.770;8.548;2023-02-15T09:11:08;16.57;;;11.03;;
11777;SDS011;5946;51.770;8.548;2023-02-15T09:13:35;16.40;;;10.67;;
11777;SDS011;5946;51.770;8.548;2023-02-15T09:16:02;19.57;;;11.37;;
11777;SDS011;5946;51.770;8.548;2023-02-15T09:18:29;17.43;;;11.50;;
11777;SDS011;5946;51.770;8.548;2023-02-15T09:20:55;18.70;;;10.93;;
11777;SDS011;5946;51.770;8.548;2023-02-15T09:23:21;14.93;;;11.13;;
11777;SDS011;5946;51.770;8.548;2023-02-15T09:25:47;15.70;;;11.03;;
11777;SDS011;5946;51.770;8.548;2023-02-15T09:28:13;18.90;;;10.87;;
11777;SDS011;5946;51.770;8.548;2023-02-15T09:30:39;13.70;;;9.60;;
11777;SDS011;5946;51.770;8.548;2023-02-15T09:33:05;16.73;;;10.60;;
11777;SDS011;5946;51.770;8.548;2023-02-15T09:35:30;14.23;;;9.30;;
11777;SDS011;5946;51.770;8.548;2023-02-15T09:37:56;15.03;;;10.47;;
11777;SDS011;5946;51.770;8.548;2023-02-15T09:40:22;14.63;;;10.10;;
11777;SDS011;5946;51.770;8.548;2023-02-15T09:48:03;13.43;;;10.13;;
11777;SDS011;5946;51.770;8.548;2023-02-15T09:50:35;13.70;;;9.57;;
11777;SDS011;5946;51.770;8.548;2023-02-15T10:03:10;14.00;;;10.33;;
11777;SDS011;5946;51.770;8.548;2023-02-15T10:05:51;13.80;;;9.77;;
11777;SDS011;5946;51.770;8.548;2023-02-15T10:08:23;14.07;;;9.63;;
11777;SDS011;5946;51.770;8.548;2023-02-15T10:13:46;16.00;;;10.00;;
11777;SDS011;5946;51.770;8.548;2023-02-15T10:16:19;13.47;;;9.33;;
11777;SDS011;5946;51.770;8.548;2023-02-15T10:26:21;13.07;;;9.47;;
11777;SDS011;5946;51.770;8.548;2023-02-15T10:28:48;14.93;;;9.60;;
11777;SDS011;5946;51.770;8.548;2023-02-15T10:31:28;14.13;;;9.60;;
11777;SDS011;5946;51.770;8.548;2023-02-15T10:51:31;21.40;;;10.10;;
11777;SDS011;5946;51.770;8.548;2023-02-15T10:59:06;15.53;;;10.30;;
11777;SDS011;5946;51.770;8.548;2023-02-15T11:01:39;19.30;;;12.40;;
11777;SDS011;5946;51.770;8.548;2023-02-15T11:06:39;16.00;;;10.53;;
11777;SDS011;5946;51.770;8.548;2023-02-15T11:09:12;17.23;;;10.47;;
11777;SDS011;5946;51.770;8.548;2023-02-15T11:11:40;16.80;;;11.33;;
11777;SDS011;5946;51.770;8.548;2023-02-15T11:14:15;18.03;;;12.37;;
11777;SDS011;5946;51.770;8.548;2023-02-15T11:16:45;17.70;;;10.90;;
11777;SDS011;5946;51.770;8.548;2023-02-15T11:21:48;16.37;;;12.10;;
11777;SDS011;5946;51.770;8.548;2023-02-15T11:24:16;16.57;;;10.23;;
11777;SDS011;5946;51.770;8.548;2023-02-15T11:26:48;17.67;;;11.87;;
11777;SDS011;5946;51.770;8.548;2023-02-15T11:29:26;20.27;;;14.00;;
11777;SDS011;5946;51.770;8.548;2023-02-15T11:31:55;16.53;;;10.60;;
11777;SDS011;5946;51.770;8.548;2023-02-15T11:34:27;15.40;;;10.77;;
11777;SDS011;5946;51.770;8.548;2023-02-15T11:36:55;16.53;;;11.77;;
11777;SDS011;5946;51.770;8.548;2023-02-15T11:39:24;20.70;;;12.57;;
11777;SDS011;5946;51.770;8.548;2023-02-15T11:41:54;16.57;;;11.03;;
11777;SDS011;5946;51.770;8.548;2023-02-15T11:44:22;15.30;;;10.63;;
11777;SDS011;5946;51.770;8.548;2023-02-15T11:46:49;17.03;;;10.87;;
11777;SDS011;5946;51.770;8.548;2023-02-15T11:49:21;17.40;;;11.07;;
11777;SDS011;5946;51.770;8.548;2023-02-15T11:51:48;18.77;;;11.97;;
11777;SDS011;5946;51.770;8.548;2023-02-15T11:54:16;19.30;;;11.13;;
11777;SDS011;5946;51.770;8.548;2023-02-15T11:56:42;20.43;;;11.60;;
11777;SDS011;5946;51.770;8.548;2023-02-15T11:59:13;16.33;;;11.57;;
11777;SDS011;5946;51.770;8.548;2023-02-15T12:01:43;19.33;;;11.70;;
11777;SDS011;5946;51.770;8.548;2023-02-15T12:06:46;15.83;;;10.80;;
11777;SDS011;5946;51.770;8.548;2023-02-15T12:09:30;18.63;;;11.23;;
11777;SDS011;5946;51.770;8.548;2023-02-15T12:14:52;19.90;;;11.73;;
11777;SDS011;5946;51.770;8.548;2023-02-15T12:17:20;18.23;;;11.87;;
11777;SDS011;5946;51.770;8.548;2023-02-15T12:19:46;18.20;;;11.57;;
11777;SDS011;5946;51.770;8.548;2023-02-15T12:22:20;18.33;;;10.93;;
11777;SDS011;5946;51.770;8.548;2023-02-15T12:24:48;17.80;;;11.93;;
11777;SDS011;5946;51.770;8.548;2023-02-15T12:27:17;17.10;;;11.30;;
11777;SDS011;5946;51.770;8.548;2023-02-15T12:29:51;19.30;;;10.97;;
11777;SDS011;5946;51.770;8.548;2023-02-15T12:32:28;20.30;;;11.50;;
11777;SDS011;5946;51.770;8.548;2023-02-15T12:34:59;18.50;;;11.63;;
11777;SDS011;5946;51.770;8.548;2023-02-15T12:37:27;18.60;;;11.20;;
11777;SDS011;5946;51.770;8.548;2023-02-15T12:39:57;19.23;;;11.77;;
11777;SDS011;5946;51.770;8.548;2023-02-15T12:42:23;18.57;;;11.37;;
11777;SDS011;5946;51.770;8.548;2023-02-15T12:44:57;15.53;;;11.17;;
11777;SDS011;5946;51.770;8.548;2023-02-15T12:47:24;17.30;;;11.13;;
11777;SDS011;5946;51.770;8.548;2023-02-15T12:52:41;19.97;;;11.93;;
11777;SDS011;5946;51.770;8.548;2023-02-15T12:55:24;18.50;;;11.47;;
11777;SDS011;5946;51.770;8.548;2023-02-15T13:00:36;18.73;;;10.70;;
11777;SDS011;5946;51.770;8.548;2023-02-15T13:03:02;17.50;;;10.50;;
11777;SDS011;5946;51.770;8.548;2023-02-15T13:05:32;18.87;;;11.77;;
11777;SDS011;5946;51.770;8.548;2023-02-15T13:08:00;17.83;;;12.07;;
11777;SDS011;5946;51.770;8.548;2023-02-15T13:10:40;15.57;;;11.47;;
11777;SDS011;5946;51.770;8.548;2023-02-15T13:13:10;16.17;;;10.33;;
11777;SDS011;5946;51.770;8.548;2023-02-15T13:15:39;20.40;;;11.97;;
11777;SDS011;5946;51.770;8.548;2023-02-15T13:18:10;20.27;;;12.03;;
11777;SDS011;5946;51.770;8.548;2023-02-15T13:20:38;18.13;;;11.50;;
11777;SDS011;5946;51.770;8.548;2023-02-15T13:23:08;18.13;;;12.30;;
11777;SDS011;5946;51.770;8.548;2023-02-15T13:25:45;22.97;;;12.53;;
11777;SDS011;5946;51.770;8.548;2023-02-15T13:28:15;20.77;;;12.73;;
11777;SDS011;5946;51.770;8.548;2023-02-15T13:30:43;19.37;;;12.33;;
11777;SDS011;5946;51.770;8.548;2023-02-15T13:33:30;19.53;;;12.53;;
11777;SDS011;5946;51.770;8.548;2023-02-15T13:40:51;19.50;;;11.87;;
11777;SDS011;5946;51.770;8.548;2023-02-15T13:46:03;20.43;;;11.20;;
11777;SDS011;5946;51.770;8.548;2023-02-15T13:51:06;18.83;;;10.90;;
11777;SDS011;5946;51.770;8.548;2023-02-15T13:56:04;16.60;;;10.60;;
11777;SDS011;5946;51.770;8.548;2023-02-15T13:58:39;15.87;;;9.87;;
11777;SDS011;5946;51.770;8.548;2023-02-15T14:03:46;17.87;;;11.20;;
11777;SDS011;5946;51.770;8.548;2023-02-15T14:06:28;13.57;;;9.67;;
11777;SDS011;5946;51.770;8.548;2023-02-15T14:09:07;17.47;;;10.80;;
11777;SDS011;5946;51.770;8.548;2023-02-15T14:19:28;16.50;;;10.60;;
11777;SDS011;5946;51.770;8.548;2023-02-15T14:21:58;15.53;;;10.53;;
11777;SDS011;5946;51.770;8.548;2023-02-15T14:24:33;17.60;;;10.83;;
11777;SDS011;5946;51.770;8.548;2023-02-15T14:27:05;15.00;;;9.77;;
11777;SDS011;5946;51.770;8.548;2023-02-15T14:34:53;14.77;;;9.87;;
11777;SDS011;5946;51.770;8.548;2023-02-15T14:37:29;15.63;;;9.30;;
11777;SDS011;5946;51.770;8.548;2023-02-15T14:43:06;16.53;;;9.57;;
11777;SDS011;5946;51.770;8.548;2023-02-15T14:48:21;16.90;;;10.10;;
11777;SDS011;5946;51.770;8.548;2023-02-15T14:50:50;15.30;;;11.80;;
11777;SDS011;5946;51.770;8.548;2023-02-15T14:55:42;12.20;;;9.30;;
11777;SDS011;5946;51.770;8.548;2023-02-15T14:58:12;13.60;;;9.77;;
11777;SDS011;5946;51.770;8.548;2023-02-15T15:00:39;12.80;;;9.17;;
11777;SDS011;5946;51.770;8.548;2023-02-15T15:03:22;17.80;;;9.23;;
11777;SDS011;5946;51.770;8.548;2023-02-15T15:05:50;12.73;;;9.20;;
11777;SDS011;5946;51.770;8.548;2023-02-15T15:14:35;13.83;;;9.63;;
11777;SDS011;5946;51.770;8.548;2023-02-15T15:16:57;14.23;;;9.40;;
11777;SDS011;5946;51.770;8.548;2023-02-15T15:22:16;16.70;;;8.30;;
11777;SDS011;5946;51.770;8.548;2023-02-15T15:29:53;14.13;;;9.17;;
11777;SDS011;5946;51.770;8.548;2023-02-15T15:32:19;11.60;;;8.47;;
11777;SDS011;5946;51.770;8.548;2023-02-15T15:35:00;11.13;;;8.53;;
11777;SDS011;5946;51.770;8.548;2023-02-15T15:50:33;25.83;;;18.60;;
11777;SDS011;5946;51.770;8.548;2023-02-15T15:53:00;46.83;;;31.07;;
11777;SDS011;5946;51.770;8.548;2023-02-15T15:55:27;41.57;;;24.50;;
11777;SDS011;5946;51.770;8.548;2023-02-15T15:57:56;40.37;;;27.00;;
11777;SDS011;5946;51.770;8.548;2023-02-15T16:00:29;24.20;;;19.23;;
11777;SDS011;5946;51.770;8.548;2023-02-15T16:02:57;32.97;;;22.33;;
11777;SDS011;5946;51.770;8.548;2023-02-15T16:05:23;29.33;;;22.90;;
11777;SDS011;5946;51.770;8.548;2023-02-15T16:07:49;13.97;;;11.00;;
11777;SDS011;5946;51.770;8.548;2023-02-15T16:10:25;17.03;;;13.33;;
11777;SDS011;5946;51.770;8.548;2023-02-15T16:12:52;19.80;;;13.07;;
11777;SDS011;5946;51.770;8.548;2023-02-15T16:15:20;14.03;;;10.93;;
11777;SDS011;5946;51.770;8.548;2023-02-15T16:17:49;13.87;;;11.07;;
11777;SDS011;5946;51.770;8.548;2023-02-15T16:20:23;14.97;;;10.73;;
11777;SDS011;5946;51.770;8.548;2023-02-15T16:22:53;17.10;;;12.30;;
11777;SDS011;5946;51.770;8.548;2023-02-15T16:25:28;16.43;;;11.70;;
11777;SDS011;5946;51.770;8.548;2023-02-15T16:27:56;16.27;;;11.53;;
11777;SDS011;5946;51.770;8.548;2023-02-15T16:30:30;17.37;;;12.17;;
11777;SDS011;5946;51.770;8.548;2023-02-15T16:35:29;20.57;;;11.80;;
11777;SDS011;5946;51.770;8.548;2023-02-15T16:37:55;18.43;;;11.90;;
11777;SDS011;5946;51.770;8.548;2023-02-15T16:42:50;34.80;;;23.47;;
11777;SDS011;5946;51.770;8.548;2023-02-15T16:45:18;32.97;;;22.47;;
11777;SDS011;5946;51.770;8.548;2023-02-15T16:47:45;30.43;;;20.53;;
11777;SDS011;5946;51.770;8.548;2023-02-15T16:50:19;38.37;;;26.10;;
11777;SDS011;5946;51.770;8.548;2023-02-15T16:52:45;26.23;;;16.60;;
11777;SDS011;5946;51.770;8.548;2023-02-15T16:55:19;22.27;;;18.33;;
11777;SDS011;5946;51.770;8.548;2023-02-15T16:57:47;23.47;;;15.30;;
11777;SDS011;5946;51.770;8.548;2023-02-15T17:00:16;17.30;;;12.47;;
11777;SDS011;5946;51.770;8.548;2023-02-15T17:02:52;18.40;;;12.87;;
11777;SDS011;5946;51.770;8.548;2023-02-15T17:05:19;17.43;;;12.23;;
11777;SDS011;5946;51.770;8.548;2023-02-15T17:10:26;18.43;;;12.63;;
11777;SDS011;5946;51.770;8.548;2023-02-15T17:12:53;17.43;;;12.30;;
11777;SDS011;5946;51.770;8.548;2023-02-15T17:15:26;18.03;;;11.87;;
11777;SDS011;5946;51.770;8.548;2023-02-15T17:17:54;15.30;;;11.87;;
11777;SDS011;5946;51.770;8.548;2023-02-15T17:20:20;15.23;;;12.13;;
11777;SDS011;5946;51.770;8.548;2023-02-15T17:22:47;19.40;;;11.53;;
11777;SDS011;5946;51.770;8.548;2023-02-15T17:25:18;17.33;;;11.73;;
11777;SDS011;5946;51.770;8.548;2023-02-15T17:27:49;18.83;;;12.00;;
11777;SDS011;5946;51.770;8.548;2023-02-15T17:30:17;17.47;;;11.93;;
11777;SDS011;5946;51.770;8.548;2023-02-15T17:32:57;18.47;;;12.23;;
11777;SDS011;5946;51.770;8.548;2023-02-15T17:35:24;18.63;;;13.13;;
11777;SDS011;5946;51.770;8.548;2023-02-15T17:37:59;18.57;;;12.80;;